Aviation Digital Data Service (ADDS)

Output produced by METARs form (1323 UTC 21 August 2019)
found at http://www.aviationweather.gov/metar/data/
 
Forecast for: ZUGY (GUIYANG , CN)
Text: TAF ZUGY 210829Z 2112/2212 18004MPS 6000 SCT033 TX32/2207Z TN21/2122Z
Forecast period: 1200 UTC 21 August 2019 to 1200 UTC 22 August 2019
Forecast type: FROM: standard forecast or significant change
Winds: from the S (180 degrees) at 9 MPH (8 knots; 4.1 m/s)
Visibility: 4 miles (6 km)
Ceiling: at least 12,000 feet AGL
Clouds: scattered clouds at 3300 feet AGL
Weather: no significant weather forecast for this period